sensor_id;sensor_type;location;lat;lon;timestamp;P1;durP1;ratioP1;P2;durP2;ratioP2
76935;SDS011;65881;52.438;16.744;2023-11-22T00:00:43;12.98;;;7.75;;
76935;SDS011;65881;52.438;16.744;2023-11-22T00:03:09;16.90;;;8.55;;
76935;SDS011;65881;52.438;16.744;2023-11-22T00:05:35;14.25;;;8.95;;
76935;SDS011;65881;52.438;16.744;2023-11-22T00:08:01;15.60;;;7.97;;
76935;SDS011;65881;52.438;16.744;2023-11-22T00:10:26;14.93;;;8.52;;
76935;SDS011;65881;52.438;16.744;2023-11-22T00:12:52;13.75;;;7.97;;
76935;SDS011;65881;52.438;16.744;2023-11-22T00:15:18;15.35;;;8.23;;
76935;SDS011;65881;52.438;16.744;2023-11-22T00:17:44;11.45;;;7.70;;
76935;SDS011;65881;52.438;16.744;2023-11-22T00:20:10;10.95;;;7.35;;
76935;SDS011;65881;52.438;16.744;2023-11-22T00:22:36;13.75;;;8.52;;
76935;SDS011;65881;52.438;16.744;2023-11-22T00:25:02;10.30;;;6.40;;
76935;SDS011;65881;52.438;16.744;2023-11-22T00:27:29;15.38;;;8.48;;
76935;SDS011;65881;52.438;16.744;2023-11-22T00:29:56;11.43;;;8.32;;
76935;SDS011;65881;52.438;16.744;2023-11-22T00:32:23;12.50;;;7.45;;
76935;SDS011;65881;52.438;16.744;2023-11-22T00:34:49;16.00;;;7.50;;
76935;SDS011;65881;52.438;16.744;2023-11-22T00:37:14;15.50;;;8.90;;
76935;SDS011;65881;52.438;16.744;2023-11-22T00:39:40;12.13;;;7.90;;
76935;SDS011;65881;52.438;16.744;2023-11-22T00:42:06;12.85;;;7.65;;
76935;SDS011;65881;52.438;16.744;2023-11-22T00:44:32;14.20;;;7.60;;
76935;SDS011;65881;52.438;16.744;2023-11-22T00:46:58;12.95;;;6.43;;
76935;SDS011;65881;52.438;16.744;2023-11-22T00:49:24;12.60;;;7.88;;
76935;SDS011;65881;52.438;16.744;2023-11-22T00:51:49;10.02;;;7.13;;
76935;SDS011;65881;52.438;16.744;2023-11-22T00:54:16;19.65;;;8.30;;
76935;SDS011;65881;52.438;16.744;2023-11-22T00:56:41;14.75;;;7.60;;
76935;SDS011;65881;52.438;16.744;2023-11-22T00:59:07;14.93;;;7.70;;
76935;SDS011;65881;52.438;16.744;2023-11-22T01:01:33;12.23;;;6.90;;
76935;SDS011;65881;52.438;16.744;2023-11-22T01:03:59;12.10;;;7.00;;
76935;SDS011;65881;52.438;16.744;2023-11-22T01:06:25;13.07;;;7.75;;
76935;SDS011;65881;52.438;16.744;2023-11-22T01:08:50;11.70;;;8.27;;
76935;SDS011;65881;52.438;16.744;2023-11-22T01:11:16;11.75;;;7.90;;
76935;SDS011;65881;52.438;16.744;2023-11-22T01:13:42;13.43;;;6.88;;
76935;SDS011;65881;52.438;16.744;2023-11-22T01:16:11;13.63;;;7.38;;
76935;SDS011;65881;52.438;16.744;2023-11-22T01:18:38;13.20;;;6.95;;
76935;SDS011;65881;52.438;16.744;2023-11-22T01:21:04;11.57;;;7.07;;
76935;SDS011;65881;52.438;16.744;2023-11-22T01:23:30;14.10;;;9.95;;
76935;SDS011;65881;52.438;16.744;2023-11-22T01:25:59;13.48;;;7.07;;
76935;SDS011;65881;52.438;16.744;2023-11-22T01:28:26;11.77;;;7.43;;
76935;SDS011;65881;52.438;16.744;2023-11-22T01:30:52;11.63;;;7.15;;
76935;SDS011;65881;52.438;16.744;2023-11-22T01:33:19;10.25;;;7.20;;
76935;SDS011;65881;52.438;16.744;2023-11-22T01:35:47;12.20;;;7.13;;
76935;SDS011;65881;52.438;16.744;2023-11-22T01:38:16;9.63;;;6.63;;
76935;SDS011;65881;52.438;16.744;2023-11-22T01:40:45;13.02;;;7.60;;
76935;SDS011;65881;52.438;16.744;2023-11-22T01:43:18;11.60;;;6.47;;
76935;SDS011;65881;52.438;16.744;2023-11-22T01:45:46;11.05;;;7.18;;
76935;SDS011;65881;52.438;16.744;2023-11-22T01:48:11;9.20;;;6.47;;
76935;SDS011;65881;52.438;16.744;2023-11-22T01:50:38;11.18;;;7.18;;
76935;SDS011;65881;52.438;16.744;2023-11-22T01:53:05;12.60;;;7.28;;
76935;SDS011;65881;52.438;16.744;2023-11-22T01:55:32;12.32;;;7.28;;
76935;SDS011;65881;52.438;16.744;2023-11-22T01:57:57;10.77;;;7.45;;
76935;SDS011;65881;52.438;16.744;2023-11-22T02:00:24;14.70;;;8.27;;
76935;SDS011;65881;52.438;16.744;2023-11-22T02:02:51;9.13;;;6.28;;
76935;SDS011;65881;52.438;16.744;2023-11-22T02:05:18;14.73;;;6.72;;
76935;SDS011;65881;52.438;16.744;2023-11-22T02:07:43;12.02;;;6.43;;
76935;SDS011;65881;52.438;16.744;2023-11-22T02:10:09;16.58;;;8.43;;
76935;SDS011;65881;52.438;16.744;2023-11-22T02:12:35;10.45;;;7.57;;
76935;SDS011;65881;52.438;16.744;2023-11-22T02:15:01;14.23;;;7.78;;
76935;SDS011;65881;52.438;16.744;2023-11-22T02:17:28;11.77;;;7.30;;
76935;SDS011;65881;52.438;16.744;2023-11-22T02:19:54;12.73;;;7.10;;
76935;SDS011;65881;52.438;16.744;2023-11-22T02:22:20;10.35;;;6.18;;
76935;SDS011;65881;52.438;16.744;2023-11-22T02:24:46;13.63;;;8.73;;
76935;SDS011;65881;52.438;16.744;2023-11-22T02:27:12;12.35;;;8.20;;
76935;SDS011;65881;52.438;16.744;2023-11-22T02:29:37;10.55;;;6.38;;
76935;SDS011;65881;52.438;16.744;2023-11-22T02:32:03;11.63;;;7.40;;
76935;SDS011;65881;52.438;16.744;2023-11-22T02:34:30;17.17;;;7.50;;
76935;SDS011;65881;52.438;16.744;2023-11-22T02:36:56;9.40;;;6.72;;
76935;SDS011;65881;52.438;16.744;2023-11-22T02:39:22;11.75;;;7.80;;
76935;SDS011;65881;52.438;16.744;2023-11-22T02:41:54;12.13;;;7.90;;
76935;SDS011;65881;52.438;16.744;2023-11-22T02:44:20;10.57;;;6.28;;
76935;SDS011;65881;52.438;16.744;2023-11-22T02:46:46;15.15;;;8.60;;
76935;SDS011;65881;52.438;16.744;2023-11-22T02:49:12;14.55;;;7.43;;
76935;SDS011;65881;52.438;16.744;2023-11-22T02:51:37;11.45;;;6.40;;
76935;SDS011;65881;52.438;16.744;2023-11-22T02:54:03;10.38;;;6.43;;
76935;SDS011;65881;52.438;16.744;2023-11-22T02:56:30;16.40;;;9.48;;
76935;SDS011;65881;52.438;16.744;2023-11-22T02:58:56;14.30;;;9.77;;
76935;SDS011;65881;52.438;16.744;2023-11-22T03:01:22;14.40;;;9.75;;
76935;SDS011;65881;52.438;16.744;2023-11-22T03:03:47;11.98;;;7.13;;
76935;SDS011;65881;52.438;16.744;2023-11-22T03:06:13;13.93;;;7.68;;
76935;SDS011;65881;52.438;16.744;2023-11-22T03:08:38;12.48;;;7.88;;
76935;SDS011;65881;52.438;16.744;2023-11-22T03:11:04;13.60;;;8.52;;
76935;SDS011;65881;52.438;16.744;2023-11-22T03:13:30;14.05;;;8.10;;
76935;SDS011;65881;52.438;16.744;2023-11-22T03:15:55;16.83;;;9.70;;
76935;SDS011;65881;52.438;16.744;2023-11-22T03:18:21;13.35;;;7.68;;
76935;SDS011;65881;52.438;16.744;2023-11-22T03:20:47;14.10;;;9.07;;
76935;SDS011;65881;52.438;16.744;2023-11-22T03:23:12;13.77;;;7.45;;
76935;SDS011;65881;52.438;16.744;2023-11-22T03:25:41;14.95;;;8.82;;
76935;SDS011;65881;52.438;16.744;2023-11-22T03:28:07;15.02;;;8.55;;
76935;SDS011;65881;52.438;16.744;2023-11-22T03:30:33;12.48;;;8.57;;
76935;SDS011;65881;52.438;16.744;2023-11-22T03:32:58;12.43;;;8.65;;
76935;SDS011;65881;52.438;16.744;2023-11-22T03:35:24;11.07;;;7.75;;
76935;SDS011;65881;52.438;16.744;2023-11-22T03:37:50;13.07;;;8.18;;
76935;SDS011;65881;52.438;16.744;2023-11-22T03:40:15;12.75;;;7.70;;
76935;SDS011;65881;52.438;16.744;2023-11-22T03:42:41;13.40;;;9.18;;
76935;SDS011;65881;52.438;16.744;2023-11-22T03:45:06;14.02;;;7.13;;
76935;SDS011;65881;52.438;16.744;2023-11-22T03:47:32;14.13;;;8.50;;
76935;SDS011;65881;52.438;16.744;2023-11-22T03:49:58;16.50;;;9.18;;
76935;SDS011;65881;52.438;16.744;2023-11-22T03:52:27;13.88;;;7.78;;
76935;SDS011;65881;52.438;16.744;2023-11-22T03:54:53;14.27;;;8.38;;
76935;SDS011;65881;52.438;16.744;2023-11-22T03:57:18;16.10;;;7.85;;
76935;SDS011;65881;52.438;16.744;2023-11-22T03:59:44;13.27;;;7.30;;
76935;SDS011;65881;52.438;16.744;2023-11-22T04:02:10;17.85;;;9.20;;
76935;SDS011;65881;52.438;16.744;2023-11-22T04:04:36;13.35;;;8.32;;
76935;SDS011;65881;52.438;16.744;2023-11-22T04:07:06;14.80;;;8.32;;
76935;SDS011;65881;52.438;16.744;2023-11-22T04:09:32;13.38;;;8.52;;
76935;SDS011;65881;52.438;16.744;2023-11-22T04:11:58;12.85;;;8.52;;
76935;SDS011;65881;52.438;16.744;2023-11-22T04:14:24;13.65;;;8.13;;
76935;SDS011;65881;52.438;16.744;2023-11-22T04:16:52;14.48;;;7.95;;
76935;SDS011;65881;52.438;16.744;2023-11-22T04:19:18;14.10;;;6.63;;
76935;SDS011;65881;52.438;16.744;2023-11-22T04:21:43;17.92;;;8.52;;
76935;SDS011;65881;52.438;16.744;2023-11-22T04:24:09;14.95;;;9.70;;
76935;SDS011;65881;52.438;16.744;2023-11-22T04:26:35;12.70;;;7.43;;
76935;SDS011;65881;52.438;16.744;2023-11-22T04:29:01;17.10;;;8.77;;
76935;SDS011;65881;52.438;16.744;2023-11-22T04:31:28;15.10;;;8.68;;
76935;SDS011;65881;52.438;16.744;2023-11-22T04:33:54;16.13;;;9.20;;
76935;SDS011;65881;52.438;16.744;2023-11-22T04:36:23;13.73;;;7.07;;
76935;SDS011;65881;52.438;16.744;2023-11-22T04:38:49;12.05;;;7.15;;
76935;SDS011;65881;52.438;16.744;2023-11-22T04:41:15;15.90;;;7.60;;
76935;SDS011;65881;52.438;16.744;2023-11-22T04:43:41;12.18;;;6.93;;
76935;SDS011;65881;52.438;16.744;2023-11-22T04:46:07;14.23;;;7.68;;
76935;SDS011;65881;52.438;16.744;2023-11-22T04:48:33;13.25;;;8.25;;
76935;SDS011;65881;52.438;16.744;2023-11-22T04:50:59;20.58;;;9.23;;
76935;SDS011;65881;52.438;16.744;2023-11-22T04:53:25;16.17;;;8.40;;
76935;SDS011;65881;52.438;16.744;2023-11-22T04:55:52;15.05;;;7.65;;
76935;SDS011;65881;52.438;16.744;2023-11-22T04:58:17;15.27;;;9.02;;
76935;SDS011;65881;52.438;16.744;2023-11-22T05:00:43;13.90;;;7.95;;
76935;SDS011;65881;52.438;16.744;2023-11-22T05:03:08;16.40;;;10.05;;
76935;SDS011;65881;52.438;16.744;2023-11-22T05:05:34;17.27;;;9.63;;
76935;SDS011;65881;52.438;16.744;2023-11-22T05:07:59;13.95;;;9.18;;
76935;SDS011;65881;52.438;16.744;2023-11-22T05:10:25;18.15;;;9.70;;
76935;SDS011;65881;52.438;16.744;2023-11-22T05:12:51;16.67;;;10.07;;
76935;SDS011;65881;52.438;16.744;2023-11-22T05:15:16;18.50;;;7.38;;
76935;SDS011;65881;52.438;16.744;2023-11-22T05:17:42;16.27;;;9.45;;
76935;SDS011;65881;52.438;16.744;2023-11-22T05:20:08;14.30;;;9.02;;
76935;SDS011;65881;52.438;16.744;2023-11-22T05:22:34;15.88;;;9.02;;
76935;SDS011;65881;52.438;16.744;2023-11-22T05:25:01;14.77;;;9.70;;
76935;SDS011;65881;52.438;16.744;2023-11-22T05:27:26;17.40;;;8.38;;
76935;SDS011;65881;52.438;16.744;2023-11-22T05:29:53;15.75;;;9.38;;
76935;SDS011;65881;52.438;16.744;2023-11-22T05:32:19;14.70;;;9.43;;
76935;SDS011;65881;52.438;16.744;2023-11-22T05:34:45;18.48;;;11.00;;
76935;SDS011;65881;52.438;16.744;2023-11-22T05:37:11;18.98;;;11.23;;
76935;SDS011;65881;52.438;16.744;2023-11-22T05:39:37;16.05;;;8.25;;
76935;SDS011;65881;52.438;16.744;2023-11-22T05:42:03;16.13;;;8.73;;
76935;SDS011;65881;52.438;16.744;2023-11-22T05:44:28;19.52;;;9.35;;
76935;SDS011;65881;52.438;16.744;2023-11-22T05:46:54;14.23;;;8.82;;
76935;SDS011;65881;52.438;16.744;2023-11-22T05:49:20;15.50;;;10.68;;
76935;SDS011;65881;52.438;16.744;2023-11-22T05:51:45;14.95;;;9.07;;
76935;SDS011;65881;52.438;16.744;2023-11-22T05:54:11;15.98;;;8.20;;
76935;SDS011;65881;52.438;16.744;2023-11-22T05:56:39;17.48;;;12.38;;
76935;SDS011;65881;52.438;16.744;2023-11-22T05:59:05;19.88;;;9.98;;
76935;SDS011;65881;52.438;16.744;2023-11-22T06:01:31;22.58;;;10.65;;
76935;SDS011;65881;52.438;16.744;2023-11-22T06:03:56;19.55;;;11.05;;
76935;SDS011;65881;52.438;16.744;2023-11-22T06:06:22;17.15;;;8.32;;
76935;SDS011;65881;52.438;16.744;2023-11-22T06:08:48;18.98;;;10.57;;
76935;SDS011;65881;52.438;16.744;2023-11-22T06:11:23;18.38;;;11.13;;
76935;SDS011;65881;52.438;16.744;2023-11-22T06:13:53;21.00;;;10.10;;
76935;SDS011;65881;52.438;16.744;2023-11-22T06:16:18;19.90;;;11.65;;
76935;SDS011;65881;52.438;16.744;2023-11-22T06:18:44;15.80;;;11.25;;
76935;SDS011;65881;52.438;16.744;2023-11-22T06:21:10;17.13;;;9.85;;
76935;SDS011;65881;52.438;16.744;2023-11-22T06:23:36;23.38;;;11.30;;
76935;SDS011;65881;52.438;16.744;2023-11-22T06:26:02;22.30;;;12.10;;
76935;SDS011;65881;52.438;16.744;2023-11-22T06:28:27;21.55;;;10.90;;
76935;SDS011;65881;52.438;16.744;2023-11-22T06:30:54;20.45;;;11.50;;
76935;SDS011;65881;52.438;16.744;2023-11-22T06:33:28;17.40;;;10.32;;
76935;SDS011;65881;52.438;16.744;2023-11-22T06:36:00;15.90;;;10.40;;
76935;SDS011;65881;52.438;16.744;2023-11-22T06:38:26;15.75;;;10.60;;
76935;SDS011;65881;52.438;16.744;2023-11-22T06:40:51;18.17;;;10.77;;
76935;SDS011;65881;52.438;16.744;2023-11-22T06:43:18;16.70;;;9.43;;
76935;SDS011;65881;52.438;16.744;2023-11-22T06:45:46;17.50;;;10.77;;
76935;SDS011;65881;52.438;16.744;2023-11-22T06:48:12;18.05;;;10.88;;
76935;SDS011;65881;52.438;16.744;2023-11-22T06:50:38;18.67;;;11.60;;
76935;SDS011;65881;52.438;16.744;2023-11-22T06:55:56;18.25;;;10.77;;
76935;SDS011;65881;52.438;16.744;2023-11-22T06:58:22;18.73;;;11.40;;
76935;SDS011;65881;52.438;16.744;2023-11-22T07:00:47;14.70;;;9.80;;
76935;SDS011;65881;52.438;16.744;2023-11-22T07:03:31;16.55;;;10.55;;
76935;SDS011;65881;52.438;16.744;2023-11-22T07:06:09;14.27;;;9.98;;
76935;SDS011;65881;52.438;16.744;2023-11-22T07:08:35;21.35;;;10.88;;
76935;SDS011;65881;52.438;16.744;2023-11-22T07:11:07;17.95;;;10.85;;
76935;SDS011;65881;52.438;16.744;2023-11-22T07:13:34;19.80;;;10.43;;
76935;SDS011;65881;52.438;16.744;2023-11-22T07:16:03;19.90;;;12.02;;
76935;SDS011;65881;52.438;16.744;2023-11-22T07:18:29;24.35;;;13.93;;
76935;SDS011;65881;52.438;16.744;2023-11-22T07:20:56;17.85;;;12.02;;
76935;SDS011;65881;52.438;16.744;2023-11-22T07:23:21;19.40;;;11.40;;
76935;SDS011;65881;52.438;16.744;2023-11-22T07:25:55;21.20;;;11.00;;
76935;SDS011;65881;52.438;16.744;2023-11-22T07:28:25;17.17;;;10.82;;
76935;SDS011;65881;52.438;16.744;2023-11-22T07:30:58;18.45;;;12.88;;
76935;SDS011;65881;52.438;16.744;2023-11-22T07:33:30;17.38;;;11.98;;
76935;SDS011;65881;52.438;16.744;2023-11-22T07:35:55;21.95;;;11.77;;
76935;SDS011;65881;52.438;16.744;2023-11-22T07:38:21;27.63;;;12.20;;
76935;SDS011;65881;52.438;16.744;2023-11-22T07:40:47;19.42;;;13.13;;
76935;SDS011;65881;52.438;16.744;2023-11-22T07:43:13;23.75;;;12.68;;
76935;SDS011;65881;52.438;16.744;2023-11-22T07:45:39;18.15;;;12.05;;
76935;SDS011;65881;52.438;16.744;2023-11-22T07:48:04;24.83;;;12.93;;
76935;SDS011;65881;52.438;16.744;2023-11-22T07:50:31;24.42;;;14.70;;
76935;SDS011;65881;52.438;16.744;2023-11-22T07:52:58;23.48;;;12.63;;
76935;SDS011;65881;52.438;16.744;2023-11-22T07:55:30;20.92;;;12.82;;
76935;SDS011;65881;52.438;16.744;2023-11-22T07:57:56;19.33;;;11.82;;
76935;SDS011;65881;52.438;16.744;2023-11-22T08:00:41;22.38;;;12.18;;
76935;SDS011;65881;52.438;16.744;2023-11-22T08:03:13;20.13;;;12.02;;
76935;SDS011;65881;52.438;16.744;2023-11-22T08:05:43;21.92;;;10.55;;
76935;SDS011;65881;52.438;16.744;2023-11-22T08:08:13;17.55;;;9.48;;
76935;SDS011;65881;52.438;16.744;2023-11-22T08:10:48;19.40;;;12.55;;
76935;SDS011;65881;52.438;16.744;2023-11-22T08:13:16;17.95;;;11.05;;
76935;SDS011;65881;52.438;16.744;2023-11-22T08:15:47;23.15;;;12.45;;
76935;SDS011;65881;52.438;16.744;2023-11-22T08:18:16;19.05;;;11.60;;
76935;SDS011;65881;52.438;16.744;2023-11-22T08:20:42;23.33;;;12.20;;
76935;SDS011;65881;52.438;16.744;2023-11-22T08:23:13;19.13;;;11.63;;
76935;SDS011;65881;52.438;16.744;2023-11-22T08:25:40;19.08;;;12.48;;
76935;SDS011;65881;52.438;16.744;2023-11-22T08:28:23;18.15;;;11.45;;
76935;SDS011;65881;52.438;16.744;2023-11-22T08:30:48;19.27;;;9.63;;
76935;SDS011;65881;52.438;16.744;2023-11-22T08:33:14;21.20;;;10.75;;
76935;SDS011;65881;52.438;16.744;2023-11-22T08:35:40;19.35;;;11.48;;
76935;SDS011;65881;52.438;16.744;2023-11-22T08:38:06;18.83;;;10.43;;
76935;SDS011;65881;52.438;16.744;2023-11-22T08:40:34;16.60;;;11.35;;
76935;SDS011;65881;52.438;16.744;2023-11-22T08:43:02;17.55;;;10.75;;
76935;SDS011;65881;52.438;16.744;2023-11-22T08:45:29;19.77;;;10.07;;
76935;SDS011;65881;52.438;16.744;2023-11-22T08:47:56;19.35;;;10.80;;
76935;SDS011;65881;52.438;16.744;2023-11-22T08:50:22;21.23;;;11.63;;
76935;SDS011;65881;52.438;16.744;2023-11-22T08:52:48;15.35;;;10.88;;
76935;SDS011;65881;52.438;16.744;2023-11-22T08:55:17;21.25;;;11.63;;
76935;SDS011;65881;52.438;16.744;2023-11-22T08:57:48;22.48;;;12.18;;
76935;SDS011;65881;52.438;16.744;2023-11-22T09:00:16;18.50;;;10.43;;
76935;SDS011;65881;52.438;16.744;2023-11-22T09:02:47;21.85;;;12.50;;
76935;SDS011;65881;52.438;16.744;2023-11-22T09:05:13;22.40;;;12.10;;
76935;SDS011;65881;52.438;16.744;2023-11-22T09:07:41;20.42;;;12.25;;
76935;SDS011;65881;52.438;16.744;2023-11-22T09:10:06;20.48;;;11.05;;
76935;SDS011;65881;52.438;16.744;2023-11-22T09:12:36;20.38;;;11.07;;
76935;SDS011;65881;52.438;16.744;2023-11-22T09:15:06;20.45;;;11.93;;
76935;SDS011;65881;52.438;16.744;2023-11-22T09:17:35;17.10;;;9.10;;
76935;SDS011;65881;52.438;16.744;2023-11-22T09:20:08;19.48;;;11.15;;
76935;SDS011;65881;52.438;16.744;2023-11-22T09:22:36;21.52;;;12.27;;
76935;SDS011;65881;52.438;16.744;2023-11-22T09:25:10;17.17;;;11.93;;
76935;SDS011;65881;52.438;16.744;2023-11-22T09:27:36;18.83;;;10.95;;
76935;SDS011;65881;52.438;16.744;2023-11-22T09:30:03;18.42;;;11.43;;
76935;SDS011;65881;52.438;16.744;2023-11-22T09:32:30;21.60;;;11.93;;
76935;SDS011;65881;52.438;16.744;2023-11-22T09:34:56;16.27;;;10.95;;
76935;SDS011;65881;52.438;16.744;2023-11-22T09:37:23;22.33;;;11.05;;
76935;SDS011;65881;52.438;16.744;2023-11-22T09:39:50;16.42;;;11.32;;
76935;SDS011;65881;52.438;16.744;2023-11-22T09:42:16;23.77;;;11.48;;
76935;SDS011;65881;52.438;16.744;2023-11-22T09:44:41;19.23;;;11.13;;
76935;SDS011;65881;52.438;16.744;2023-11-22T09:47:08;17.30;;;11.75;;
76935;SDS011;65881;52.438;16.744;2023-11-22T09:49:35;15.45;;;9.75;;
76935;SDS011;65881;52.438;16.744;2023-11-22T09:52:05;19.17;;;11.30;;
76935;SDS011;65881;52.438;16.744;2023-11-22T09:54:37;22.67;;;10.32;;
76935;SDS011;65881;52.438;16.744;2023-11-22T09:57:05;18.27;;;10.50;;
76935;SDS011;65881;52.438;16.744;2023-11-22T09:59:33;21.98;;;11.43;;
76935;SDS011;65881;52.438;16.744;2023-11-22T10:02:00;22.90;;;13.13;;
76935;SDS011;65881;52.438;16.744;2023-11-22T10:04:26;14.55;;;10.15;;
76935;SDS011;65881;52.438;16.744;2023-11-22T10:06:54;23.15;;;12.35;;
76935;SDS011;65881;52.438;16.744;2023-11-22T10:09:20;22.30;;;12.20;;
76935;SDS011;65881;52.438;16.744;2023-11-22T10:11:49;17.23;;;9.68;;
76935;SDS011;65881;52.438;16.744;2023-11-22T10:14:24;15.43;;;9.18;;
76935;SDS011;65881;52.438;16.744;2023-11-22T10:16:58;14.90;;;9.27;;
76935;SDS011;65881;52.438;16.744;2023-11-22T10:19:25;19.00;;;9.68;;
76935;SDS011;65881;52.438;16.744;2023-11-22T10:22:07;17.00;;;9.20;;
76935;SDS011;65881;52.438;16.744;2023-11-22T10:24:34;13.90;;;9.73;;
76935;SDS011;65881;52.438;16.744;2023-11-22T10:27:00;11.88;;;9.45;;
76935;SDS011;65881;52.438;16.744;2023-11-22T10:29:28;15.20;;;9.90;;
76935;SDS011;65881;52.438;16.744;2023-11-22T10:31:54;15.00;;;9.00;;
76935;SDS011;65881;52.438;16.744;2023-11-22T10:34:23;23.80;;;11.07;;
76935;SDS011;65881;52.438;16.744;2023-11-22T10:36:49;20.30;;;10.95;;
76935;SDS011;65881;52.438;16.744;2023-11-22T10:39:18;22.38;;;11.43;;
76935;SDS011;65881;52.438;16.744;2023-11-22T10:41:47;20.20;;;9.35;;
76935;SDS011;65881;52.438;16.744;2023-11-22T10:44:15;17.63;;;9.52;;
76935;SDS011;65881;52.438;16.744;2023-11-22T10:46:44;16.30;;;9.15;;
76935;SDS011;65881;52.438;16.744;2023-11-22T10:49:12;18.13;;;11.30;;
76935;SDS011;65881;52.438;16.744;2023-11-22T10:51:38;17.70;;;10.50;;
76935;SDS011;65881;52.438;16.744;2023-11-22T10:54:06;20.83;;;14.40;;
76935;SDS011;65881;52.438;16.744;2023-11-22T10:56:39;20.30;;;11.77;;
76935;SDS011;65881;52.438;16.744;2023-11-22T10:59:13;20.77;;;10.70;;
76935;SDS011;65881;52.438;16.744;2023-11-22T11:01:44;16.52;;;9.40;;
76935;SDS011;65881;52.438;16.744;2023-11-22T11:04:18;19.25;;;11.13;;
76935;SDS011;65881;52.438;16.744;2023-11-22T11:06:51;15.90;;;10.25;;
76935;SDS011;65881;52.438;16.744;2023-11-22T11:09:20;19.90;;;10.73;;
76935;SDS011;65881;52.438;16.744;2023-11-22T11:11:51;16.77;;;9.85;;
76935;SDS011;65881;52.438;16.744;2023-11-22T11:14:16;15.98;;;9.88;;
76935;SDS011;65881;52.438;16.744;2023-11-22T11:16:42;13.23;;;8.52;;
76935;SDS011;65881;52.438;16.744;2023-11-22T11:19:15;19.05;;;9.82;;
76935;SDS011;65881;52.438;16.744;2023-11-22T11:21:47;16.40;;;10.20;;
76935;SDS011;65881;52.438;16.744;2023-11-22T11:24:13;16.77;;;11.05;;
76935;SDS011;65881;52.438;16.744;2023-11-22T11:26:39;16.73;;;11.88;;
76935;SDS011;65881;52.438;16.744;2023-11-22T11:29:05;22.85;;;12.73;;
76935;SDS011;65881;52.438;16.744;2023-11-22T11:31:33;14.75;;;9.43;;
76935;SDS011;65881;52.438;16.744;2023-11-22T11:34:07;15.18;;;10.57;;
76935;SDS011;65881;52.438;16.744;2023-11-22T11:36:33;16.23;;;9.98;;
76935;SDS011;65881;52.438;16.744;2023-11-22T11:39:02;19.48;;;10.52;;
76935;SDS011;65881;52.438;16.744;2023-11-22T11:41:34;18.05;;;9.98;;
76935;SDS011;65881;52.438;16.744;2023-11-22T11:44:05;18.85;;;10.02;;
76935;SDS011;65881;52.438;16.744;2023-11-22T11:46:34;19.00;;;10.02;;
76935;SDS011;65881;52.438;16.744;2023-11-22T11:49:03;14.90;;;9.13;;
76935;SDS011;65881;52.438;16.744;2023-11-22T11:51:34;17.98;;;11.23;;
76935;SDS011;65881;52.438;16.744;2023-11-22T11:54:01;21.25;;;11.07;;
76935;SDS011;65881;52.438;16.744;2023-11-22T11:56:26;26.33;;;13.40;;
76935;SDS011;65881;52.438;16.744;2023-11-22T11:58:55;18.30;;;9.52;;
76935;SDS011;65881;52.438;16.744;2023-11-22T12:01:24;14.70;;;9.10;;
76935;SDS011;65881;52.438;16.744;2023-11-22T12:03:52;15.65;;;9.77;;
76935;SDS011;65881;52.438;16.744;2023-11-22T12:06:18;17.73;;;10.38;;
76935;SDS011;65881;52.438;16.744;2023-11-22T12:08:47;15.77;;;9.90;;
76935;SDS011;65881;52.438;16.744;2023-11-22T12:11:13;21.38;;;10.95;;
76935;SDS011;65881;52.438;16.744;2023-11-22T12:13:41;15.90;;;10.52;;
76935;SDS011;65881;52.438;16.744;2023-11-22T12:16:13;17.70;;;8.40;;
76935;SDS011;65881;52.438;16.744;2023-11-22T12:18:45;18.30;;;9.85;;
76935;SDS011;65881;52.438;16.744;2023-11-22T12:21:15;16.92;;;10.02;;
76935;SDS011;65881;52.438;16.744;2023-11-22T12:23:42;16.10;;;8.95;;
76935;SDS011;65881;52.438;16.744;2023-11-22T12:26:12;21.25;;;9.73;;
76935;SDS011;65881;52.438;16.744;2023-11-22T12:28:39;15.30;;;9.63;;
76935;SDS011;65881;52.438;16.744;2023-11-22T12:31:12;17.40;;;9.52;;
76935;SDS011;65881;52.438;16.744;2023-11-22T12:33:42;15.27;;;9.70;;
76935;SDS011;65881;52.438;16.744;2023-11-22T12:36:08;15.98;;;9.10;;
76935;SDS011;65881;52.438;16.744;2023-11-22T12:38:35;15.18;;;8.88;;
76935;SDS011;65881;52.438;16.744;2023-11-22T12:41:02;10.45;;;7.68;;
76935;SDS011;65881;52.438;16.744;2023-11-22T12:43:28;13.88;;;8.10;;
76935;SDS011;65881;52.438;16.744;2023-11-22T12:45:59;14.15;;;9.18;;
76935;SDS011;65881;52.438;16.744;2023-11-22T12:48:38;14.07;;;8.48;;
76935;SDS011;65881;52.438;16.744;2023-11-22T12:51:14;14.73;;;8.82;;
76935;SDS011;65881;52.438;16.744;2023-11-22T12:53:41;12.40;;;7.40;;
76935;SDS011;65881;52.438;16.744;2023-11-22T12:56:07;15.35;;;8.40;;
76935;SDS011;65881;52.438;16.744;2023-11-22T12:58:33;12.00;;;6.80;;
76935;SDS011;65881;52.438;16.744;2023-11-22T13:00:59;12.00;;;7.97;;
76935;SDS011;65881;52.438;16.744;2023-11-22T13:03:25;14.95;;;7.57;;
76935;SDS011;65881;52.438;16.744;2023-11-22T13:05:52;13.60;;;8.30;;
76935;SDS011;65881;52.438;16.744;2023-11-22T13:08:18;13.57;;;7.65;;
76935;SDS011;65881;52.438;16.744;2023-11-22T13:10:48;16.77;;;8.27;;
76935;SDS011;65881;52.438;16.744;2023-11-22T13:13:24;13.85;;;8.90;;
76935;SDS011;65881;52.438;16.744;2023-11-22T13:15:52;13.45;;;7.72;;
76935;SDS011;65881;52.438;16.744;2023-11-22T13:18:18;11.70;;;8.57;;
76935;SDS011;65881;52.438;16.744;2023-11-22T13:20:44;14.38;;;8.63;;
76935;SDS011;65881;52.438;16.744;2023-11-22T13:23:11;14.27;;;8.57;;
76935;SDS011;65881;52.438;16.744;2023-11-22T13:25:38;13.40;;;8.75;;
76935;SDS011;65881;52.438;16.744;2023-11-22T13:28:07;14.38;;;8.48;;
76935;SDS011;65881;52.438;16.744;2023-11-22T13:30:33;17.70;;;8.55;;
76935;SDS011;65881;52.438;16.744;2023-11-22T13:32:59;12.93;;;8.43;;
76935;SDS011;65881;52.438;16.744;2023-11-22T13:35:25;16.48;;;9.52;;
76935;SDS011;65881;52.438;16.744;2023-11-22T13:37:56;15.48;;;8.55;;
76935;SDS011;65881;52.438;16.744;2023-11-22T13:40:23;15.50;;;7.13;;
76935;SDS011;65881;52.438;16.744;2023-11-22T13:42:52;15.02;;;8.63;;
76935;SDS011;65881;52.438;16.744;2023-11-22T13:45:18;14.75;;;9.07;;
76935;SDS011;65881;52.438;16.744;2023-11-22T13:47:46;14.20;;;7.88;;
76935;SDS011;65881;52.438;16.744;2023-11-22T13:50:16;17.95;;;9.23;;
76935;SDS011;65881;52.438;16.744;2023-11-22T13:52:47;17.77;;;9.18;;
76935;SDS011;65881;52.438;16.744;2023-11-22T13:55:13;15.05;;;8.77;;
76935;SDS011;65881;52.438;16.744;2023-11-22T13:57:41;16.48;;;8.68;;
76935;SDS011;65881;52.438;16.744;2023-11-22T14:00:07;13.73;;;8.50;;
76935;SDS011;65881;52.438;16.744;2023-11-22T14:02:50;17.02;;;9.85;;
76935;SDS011;65881;52.438;16.744;2023-11-22T14:05:18;14.48;;;8.98;;
76935;SDS011;65881;52.438;16.744;2023-11-22T14:07:44;14.88;;;8.32;;
76935;SDS011;65881;52.438;16.744;2023-11-22T14:10:10;14.73;;;8.40;;
76935;SDS011;65881;52.438;16.744;2023-11-22T14:12:36;18.98;;;9.18;;
76935;SDS011;65881;52.438;16.744;2023-11-22T14:15:03;14.43;;;8.65;;
76935;SDS011;65881;52.438;16.744;2023-11-22T14:17:32;17.52;;;10.50;;
76935;SDS011;65881;52.438;16.744;2023-11-22T14:19:57;16.77;;;9.32;;